sensor_id;sensor_type;location;lat;lon;timestamp;pressure;altitude;pressure_sealevel;temperature;humidity
11212;BME280;5663;50.864;12.096;2023-04-21T00:01:22;99412.31;;;6.01;72.27
11212;BME280;5663;50.864;12.096;2023-04-21T00:03:50;99393.78;;;5.86;72.14
11212;BME280;5663;50.864;12.096;2023-04-21T00:06:19;99392.00;;;5.88;72.21
11212;BME280;5663;50.864;12.096;2023-04-21T00:08:48;99403.88;;;5.96;72.07
11212;BME280;5663;50.864;12.096;2023-04-21T00:11:16;99395.31;;;5.93;71.89
11212;BME280;5663;50.864;12.096;2023-04-21T00:13:45;99396.25;;;5.91;72.19
11212;BME280;5663;50.864;12.096;2023-04-21T00:16:14;99391.16;;;5.88;72.52
11212;BME280;5663;50.864;12.096;2023-04-21T00:18:43;99386.84;;;5.88;72.54
11212;BME280;5663;50.864;12.096;2023-04-21T00:21:11;99374.84;;;5.87;72.72
11212;BME280;5663;50.864;12.096;2023-04-21T00:23:40;99382.53;;;5.89;72.78
11212;BME280;5663;50.864;12.096;2023-04-21T00:26:08;99377.34;;;5.90;72.53
11212;BME280;5663;50.864;12.096;2023-04-21T00:28:37;99374.75;;;5.90;72.36
11212;BME280;5663;50.864;12.096;2023-04-21T00:31:06;99371.34;;;5.88;72.37
11212;BME280;5663;50.864;12.096;2023-04-21T00:33:35;99374.75;;;5.90;72.10
11212;BME280;5663;50.864;12.096;2023-04-21T00:36:03;99371.34;;;5.88;72.06
11212;BME280;5663;50.864;12.096;2023-04-21T00:41:49;99362.81;;;5.86;71.92
11212;BME280;5663;50.864;12.096;2023-04-21T00:44:17;99334.34;;;5.63;72.02
11212;BME280;5663;50.864;12.096;2023-04-21T00:46:45;99372.34;;;5.84;71.92
11212;BME280;5663;50.864;12.096;2023-04-21T00:49:15;99368.09;;;5.83;71.71
11212;BME280;5663;50.864;12.096;2023-04-21T00:51:44;99373.28;;;5.82;71.78
11212;BME280;5663;50.864;12.096;2023-04-21T00:54:13;99371.66;;;5.79;71.62
11212;BME280;5663;50.864;12.096;2023-04-21T00:56:41;99337.84;;;5.60;71.80
11212;BME280;5663;50.864;12.096;2023-04-21T00:59:09;99364.78;;;5.78;71.56
11212;BME280;5663;50.864;12.096;2023-04-21T01:01:37;99361.44;;;5.76;71.73
11212;BME280;5663;50.864;12.096;2023-04-21T01:04:07;99361.50;;;5.73;71.79
11212;BME280;5663;50.864;12.096;2023-04-21T01:06:37;99349.59;;;5.69;72.13
11212;BME280;5663;50.864;12.096;2023-04-21T01:09:05;99352.19;;;5.69;72.22
11212;BME280;5663;50.864;12.096;2023-04-21T01:11:32;99345.28;;;5.69;72.29
11212;BME280;5663;50.864;12.096;2023-04-21T01:14:00;99342.75;;;5.68;72.27
11212;BME280;5663;50.864;12.096;2023-04-21T01:16:28;99354.75;;;5.69;72.36
11212;BME280;5663;50.864;12.096;2023-04-21T01:18:57;99348.69;;;5.72;72.36
11212;BME280;5663;50.864;12.096;2023-04-21T01:21:26;99341.84;;;5.71;72.57
11212;BME280;5663;50.864;12.096;2023-04-21T01:23:58;99335.81;;;5.70;72.44
11212;BME280;5663;50.864;12.096;2023-04-21T01:26:27;99345.28;;;5.69;72.37
11212;BME280;5663;50.864;12.096;2023-04-21T01:28:56;99310.59;;;5.52;72.19
11212;BME280;5663;50.864;12.096;2023-04-21T01:31:24;99343.59;;;5.68;72.70
11212;BME280;5663;50.864;12.096;2023-04-21T01:33:52;99344.50;;;5.67;72.54
11212;BME280;5663;50.864;12.096;2023-04-21T01:36:21;99337.78;;;5.62;72.72
11212;BME280;5663;50.864;12.096;2023-04-21T01:38:49;99347.94;;;5.68;72.57
11212;BME280;5663;50.864;12.096;2023-04-21T01:41:18;99344.53;;;5.66;72.30
11212;BME280;5663;50.864;12.096;2023-04-21T01:43:47;99348.69;;;5.72;72.66
11212;BME280;5663;50.864;12.096;2023-04-21T01:46:18;99347.84;;;5.71;72.44
11212;BME280;5663;50.864;12.096;2023-04-21T01:48:46;99349.50;;;5.72;72.38
11212;BME280;5663;50.864;12.096;2023-04-21T01:51:14;99347.00;;;5.71;72.36
11212;BME280;5663;50.864;12.096;2023-04-21T01:53:42;99343.59;;;5.68;72.56
11212;BME280;5663;50.864;12.096;2023-04-21T01:56:12;99344.44;;;5.69;72.70
11212;BME280;5663;50.864;12.096;2023-04-21T01:58:45;99353.09;;;5.68;72.82
11212;BME280;5663;50.864;12.096;2023-04-21T02:01:12;99353.09;;;5.68;72.71
11212;BME280;5663;50.864;12.096;2023-04-21T02:03:40;99325.38;;;5.47;72.93
11212;BME280;5663;50.864;12.096;2023-04-21T02:06:08;99346.28;;;5.65;73.09
11212;BME280;5663;50.864;12.096;2023-04-21T02:08:35;99352.28;;;5.66;72.96
11212;BME280;5663;50.864;12.096;2023-04-21T02:11:03;99353.16;;;5.65;72.89
11212;BME280;5663;50.864;12.096;2023-04-21T02:13:31;99359.22;;;5.64;72.96
11212;BME280;5663;50.864;12.096;2023-04-21T02:16:01;99353.25;;;5.62;73.44
11212;BME280;5663;50.864;12.096;2023-04-21T02:18:29;99353.25;;;5.62;73.83
11212;BME280;5663;50.864;12.096;2023-04-21T02:20:57;99359.31;;;5.61;73.84
11212;BME280;5663;50.864;12.096;2023-04-21T02:23:25;99332.31;;;5.44;73.63
11212;BME280;5663;50.864;12.096;2023-04-21T02:25:53;99342.56;;;5.46;73.69
11212;BME280;5663;50.864;12.096;2023-04-21T02:28:20;99325.72;;;5.36;73.83
11212;BME280;5663;50.864;12.096;2023-04-21T02:30:48;99355.22;;;5.55;74.02
11212;BME280;5663;50.864;12.096;2023-04-21T02:33:17;99334.22;;;5.38;74.01
11212;BME280;5663;50.864;12.096;2023-04-21T02:35:45;99352.81;;;5.49;73.95
11212;BME280;5663;50.864;12.096;2023-04-21T02:38:13;99340.88;;;5.45;74.38
11212;BME280;5663;50.864;12.096;2023-04-21T02:40:42;99341.81;;;5.42;74.11
11212;BME280;5663;50.864;12.096;2023-04-21T02:43:09;99340.13;;;5.41;73.92
11212;BME280;5663;50.864;12.096;2023-04-21T02:45:38;99346.13;;;5.42;74.43
11212;BME280;5663;50.864;12.096;2023-04-21T02:48:06;99347.03;;;5.41;74.38
11212;BME280;5663;50.864;12.096;2023-04-21T02:50:35;99346.25;;;5.39;74.40
11212;BME280;5663;50.864;12.096;2023-04-21T02:53:03;99326.84;;;5.27;74.06
11212;BME280;5663;50.864;12.096;2023-04-21T02:55:31;99347.19;;;5.36;74.28
11212;BME280;5663;50.864;12.096;2023-04-21T02:57:59;99338.63;;;5.34;73.56
11212;BME280;5663;50.864;12.096;2023-04-21T03:00:27;99338.75;;;5.31;73.65
11212;BME280;5663;50.864;12.096;2023-04-21T03:02:54;99347.47;;;5.27;73.79
11212;BME280;5663;50.864;12.096;2023-04-21T03:05:22;99350.91;;;5.26;73.36
11212;BME280;5663;50.864;12.096;2023-04-21T03:07:52;99322.28;;;5.06;73.13
11212;BME280;5663;50.864;12.096;2023-04-21T03:10:19;99348.47;;;5.22;73.31
11212;BME280;5663;50.864;12.096;2023-04-21T03:12:47;99342.47;;;5.21;73.00
11212;BME280;5663;50.864;12.096;2023-04-21T03:15:15;99353.72;;;5.18;73.45
11212;BME280;5663;50.864;12.096;2023-04-21T03:17:44;99350.28;;;5.18;73.58
11212;BME280;5663;50.864;12.096;2023-04-21T03:20:12;99328.41;;;5.03;73.18
11212;BME280;5663;50.864;12.096;2023-04-21T03:22:41;99343.44;;;5.17;73.36
11212;BME280;5663;50.864;12.096;2023-04-21T03:25:10;99327.66;;;4.98;73.28
11212;BME280;5663;50.864;12.096;2023-04-21T03:27:40;99353.84;;;5.14;73.64
11212;BME280;5663;50.864;12.096;2023-04-21T03:30:09;99356.41;;;5.14;73.68
11212;BME280;5663;50.864;12.096;2023-04-21T03:32:37;99347.91;;;5.12;73.82
11212;BME280;5663;50.864;12.096;2023-04-21T03:35:05;99350.41;;;5.15;73.77
11212;BME280;5663;50.864;12.096;2023-04-21T03:37:32;99349.50;;;5.16;73.54
11212;BME280;5663;50.864;12.096;2023-04-21T03:40:02;99349.63;;;5.11;74.44
11212;BME280;5663;50.864;12.096;2023-04-21T03:42:34;99342.84;;;5.09;74.68
11212;BME280;5663;50.864;12.096;2023-04-21T03:45:03;99342.84;;;5.09;74.83
11212;BME280;5663;50.864;12.096;2023-04-21T03:47:31;99320.06;;;4.95;74.71
11212;BME280;5663;50.864;12.096;2023-04-21T03:49:59;99309.91;;;4.89;74.74
11212;BME280;5663;50.864;12.096;2023-04-21T03:52:26;99321.66;;;4.99;75.07
11212;BME280;5663;50.864;12.096;2023-04-21T03:54:54;99340.19;;;5.10;74.38
11212;BME280;5663;50.864;12.096;2023-04-21T03:57:22;99342.75;;;5.12;74.88
11212;BME280;5663;50.864;12.096;2023-04-21T03:59:52;99347.91;;;5.12;74.58
11212;BME280;5663;50.864;12.096;2023-04-21T04:02:20;99351.38;;;5.11;74.67
11212;BME280;5663;50.864;12.096;2023-04-21T04:04:48;99353.97;;;5.11;74.41
11212;BME280;5663;50.864;12.096;2023-04-21T04:07:15;99324.44;;;4.91;74.19
11212;BME280;5663;50.864;12.096;2023-04-21T04:09:43;99360.81;;;5.10;74.11
11212;BME280;5663;50.864;12.096;2023-04-21T04:12:11;99351.47;;;5.08;74.23
11212;BME280;5663;50.864;12.096;2023-04-21T04:14:39;99356.63;;;5.08;73.52
11212;BME280;5663;50.864;12.096;2023-04-21T04:17:08;99324.53;;;4.88;73.98
11212;BME280;5663;50.864;12.096;2023-04-21T04:19:36;99359.28;;;5.05;73.77
11212;BME280;5663;50.864;12.096;2023-04-21T04:22:04;99352.47;;;5.02;74.08
11212;BME280;5663;50.864;12.096;2023-04-21T04:24:32;99361.06;;;5.03;74.32
11212;BME280;5663;50.864;12.096;2023-04-21T04:27:01;99360.25;;;5.01;74.35
11212;BME280;5663;50.864;12.096;2023-04-21T04:29:29;99355.09;;;5.01;74.28
11212;BME280;5663;50.864;12.096;2023-04-21T04:31:57;99346.53;;;5.00;74.29
11212;BME280;5663;50.864;12.096;2023-04-21T04:34:28;99355.03;;;5.02;74.89
11212;BME280;5663;50.864;12.096;2023-04-21T04:36:55;99270.66;;;4.50;75.11
11212;BME280;5663;50.864;12.096;2023-04-21T04:39:24;99355.00;;;5.04;75.20
11212;BME280;5663;50.864;12.096;2023-04-21T04:41:52;99358.38;;;5.06;74.94
11212;BME280;5663;50.864;12.096;2023-04-21T04:44:20;99351.47;;;5.08;75.44
11212;BME280;5663;50.864;12.096;2023-04-21T04:46:49;99351.47;;;5.08;75.27
11212;BME280;5663;50.864;12.096;2023-04-21T04:49:17;99354.75;;;5.13;75.58
11212;BME280;5663;50.864;12.096;2023-04-21T04:51:49;99358.88;;;5.18;75.50
11212;BME280;5663;50.864;12.096;2023-04-21T04:54:17;99352.78;;;5.21;75.65
11212;BME280;5663;50.864;12.096;2023-04-21T04:56:45;99347.63;;;5.21;75.54
11212;BME280;5663;50.864;12.096;2023-04-21T04:59:14;99357.78;;;5.27;75.67
11212;BME280;5663;50.864;12.096;2023-04-21T05:01:42;99353.41;;;5.29;75.60
11212;BME280;5663;50.864;12.096;2023-04-21T05:04:10;99357.56;;;5.33;75.69
11212;BME280;5663;50.864;12.096;2023-04-21T05:06:41;99361.75;;;5.37;76.08
11212;BME280;5663;50.864;12.096;2023-04-21T05:09:11;99354.06;;;5.36;75.57
11212;BME280;5663;50.864;12.096;2023-04-21T05:11:40;99362.28;;;5.49;75.84
11212;BME280;5663;50.864;12.096;2023-04-21T05:14:09;99369.03;;;5.53;76.12
11212;BME280;5663;50.864;12.096;2023-04-21T05:16:37;99370.72;;;5.54;76.21
11212;BME280;5663;50.864;12.096;2023-04-21T05:19:05;99374.00;;;5.59;76.19
11212;BME280;5663;50.864;12.096;2023-04-21T05:21:32;99377.28;;;5.64;75.93
11212;BME280;5663;50.864;12.096;2023-04-21T05:24:01;99372.81;;;5.69;76.11
11212;BME280;5663;50.864;12.096;2023-04-21T05:26:30;99380.38;;;5.75;76.22
11212;BME280;5663;50.864;12.096;2023-04-21T05:28:58;99380.16;;;5.83;76.24
11212;BME280;5663;50.864;12.096;2023-04-21T05:31:26;99369.69;;;5.87;76.74
11212;BME280;5663;50.864;12.096;2023-04-21T05:33:53;99366.97;;;5.92;77.07
11212;BME280;5663;50.864;12.096;2023-04-21T05:36:21;99372.69;;;6.02;77.32
11212;BME280;5663;50.864;12.096;2023-04-21T05:38:50;99364.94;;;6.02;77.38
11212;BME280;5663;50.864;12.096;2023-04-21T05:41:19;99367.81;;;6.19;77.73
11212;BME280;5663;50.864;12.096;2023-04-21T05:43:50;99360.75;;;6.24;78.25
11212;BME280;5663;50.864;12.096;2023-04-21T05:46:18;99301.31;;;6.01;78.41
11212;BME280;5663;50.864;12.096;2023-04-21T05:48:46;99364.94;;;6.53;78.36
11212;BME280;5663;50.864;12.096;2023-04-21T05:51:14;99361.06;;;6.65;78.09
11212;BME280;5663;50.864;12.096;2023-04-21T05:53:43;99355.53;;;6.76;78.23
11212;BME280;5663;50.864;12.096;2023-04-21T05:56:12;99362.13;;;7.08;78.83
11212;BME280;5663;50.864;12.096;2023-04-21T05:58:40;99361.13;;;7.34;78.46
11212;BME280;5663;50.864;12.096;2023-04-21T06:01:10;99339.31;;;7.41;78.21
11212;BME280;5663;50.864;12.096;2023-04-21T06:03:38;99332.63;;;7.57;78.16
11212;BME280;5663;50.864;12.096;2023-04-21T06:06:06;99343.53;;;7.87;78.22
11212;BME280;5663;50.864;12.096;2023-04-21T06:08:34;99354.97;;;8.04;77.93
11212;BME280;5663;50.864;12.096;2023-04-21T06:11:01;99338.56;;;8.03;78.12
11212;BME280;5663;50.864;12.096;2023-04-21T06:13:29;99354.34;;;8.19;78.94
11212;BME280;5663;50.864;12.096;2023-04-21T06:15:57;99354.84;;;8.27;78.98
11212;BME280;5663;50.864;12.096;2023-04-21T06:18:27;99355.13;;;8.42;79.28
11212;BME280;5663;50.864;12.096;2023-04-21T06:20:55;99353.63;;;8.56;79.30
11212;BME280;5663;50.864;12.096;2023-04-21T06:23:23;99356.38;;;8.74;79.81
11212;BME280;5663;50.864;12.096;2023-04-21T06:26:01;99351.63;;;9.02;80.19
11212;BME280;5663;50.864;12.096;2023-04-21T06:28:31;99360.91;;;9.27;79.51
11212;BME280;5663;50.864;12.096;2023-04-21T06:30:59;99343.75;;;9.60;79.15
11212;BME280;5663;50.864;12.096;2023-04-21T06:33:29;99346.19;;;10.00;78.70
11212;BME280;5663;50.864;12.096;2023-04-21T06:35:57;99339.44;;;10.49;77.59
11212;BME280;5663;50.864;12.096;2023-04-21T06:38:25;99304.97;;;10.95;76.60
11212;BME280;5663;50.864;12.096;2023-04-21T06:40:53;99327.63;;;11.56;75.76
11212;BME280;5663;50.864;12.096;2023-04-21T06:43:20;99320.97;;;11.98;75.31
11212;BME280;5663;50.864;12.096;2023-04-21T06:45:48;99326.16;;;12.28;75.18
11212;BME280;5663;50.864;12.096;2023-04-21T06:48:16;99321.53;;;12.47;75.56
11212;BME280;5663;50.864;12.096;2023-04-21T06:50:47;99314.94;;;12.70;75.48
11212;BME280;5663;50.864;12.096;2023-04-21T06:53:15;99314.19;;;12.82;75.26
11212;BME280;5663;50.864;12.096;2023-04-21T06:55:43;99270.94;;;12.64;75.62
11212;BME280;5663;50.864;12.096;2023-04-21T06:58:12;99288.31;;;12.65;75.27
11212;BME280;5663;50.864;12.096;2023-04-21T07:00:39;99310.66;;;12.83;74.78
11212;BME280;5663;50.864;12.096;2023-04-21T07:03:07;99309.91;;;12.81;74.02
11212;BME280;5663;50.864;12.096;2023-04-21T07:05:35;99293.31;;;12.68;73.78
11212;BME280;5663;50.864;12.096;2023-04-21T07:08:05;99315.78;;;12.85;73.91
11212;BME280;5663;50.864;12.096;2023-04-21T07:10:33;99226.06;;;12.59;73.07
11212;BME280;5663;50.864;12.096;2023-04-21T07:13:01;99311.28;;;13.30;71.55
11212;BME280;5663;50.864;12.096;2023-04-21T07:15:29;99313.66;;;13.47;70.99
11212;BME280;5663;50.864;12.096;2023-04-21T07:17:57;99306.09;;;13.57;71.08
11212;BME280;5663;50.864;12.096;2023-04-21T07:20:25;99317.91;;;13.63;70.54
11212;BME280;5663;50.864;12.096;2023-04-21T07:22:53;99310.59;;;13.68;69.98
11212;BME280;5663;50.864;12.096;2023-04-21T07:25:23;99317.94;;;13.75;69.62
11212;BME280;5663;50.864;12.096;2023-04-21T07:27:51;99319.97;;;13.85;68.99
11212;BME280;5663;50.864;12.096;2023-04-21T07:30:19;99310.59;;;13.95;68.26
11212;BME280;5663;50.864;12.096;2023-04-21T07:32:46;99290.63;;;13.94;67.52
11212;BME280;5663;50.864;12.096;2023-04-21T07:35:14;99317.34;;;14.24;66.97
11212;BME280;5663;50.864;12.096;2023-04-21T07:37:42;99310.75;;;14.32;66.59
11212;BME280;5663;50.864;12.096;2023-04-21T07:40:10;99309.72;;;14.47;66.93
11212;BME280;5663;50.864;12.096;2023-04-21T07:42:40;99313.44;;;14.57;65.86
11212;BME280;5663;50.864;12.096;2023-04-21T07:45:08;99304.72;;;14.69;66.96
11212;BME280;5663;50.864;12.096;2023-04-21T07:47:36;99300.75;;;14.76;66.22
11212;BME280;5663;50.864;12.096;2023-04-21T07:50:06;99313.00;;;14.89;65.99
11212;BME280;5663;50.864;12.096;2023-04-21T07:52:33;99274.97;;;14.83;65.49
11212;BME280;5663;50.864;12.096;2023-04-21T07:55:01;99307.41;;;15.06;64.60
11212;BME280;5663;50.864;12.096;2023-04-21T07:57:29;99294.81;;;15.11;64.56
11212;BME280;5663;50.864;12.096;2023-04-21T08:00:01;99308.19;;;15.19;63.87
11212;BME280;5663;50.864;12.096;2023-04-21T08:02:29;99299.16;;;15.23;63.45
11212;BME280;5663;50.864;12.096;2023-04-21T08:04:57;99292.47;;;15.32;62.94
11212;BME280;5663;50.864;12.096;2023-04-21T08:07:24;99300.47;;;15.42;62.60
11212;BME280;5663;50.864;12.096;2023-04-21T08:09:53;99302.22;;;15.54;63.14
11212;BME280;5663;50.864;12.096;2023-04-21T08:12:21;99297.38;;;15.61;62.73
11212;BME280;5663;50.864;12.096;2023-04-21T08:14:49;99305.34;;;15.72;61.25
11212;BME280;5663;50.864;12.096;2023-04-21T08:17:19;99305.13;;;15.86;62.57
11212;BME280;5663;50.864;12.096;2023-04-21T08:19:47;99291.72;;;16.02;62.08
11212;BME280;5663;50.864;12.096;2023-04-21T08:22:15;99284.06;;;15.99;60.71
11212;BME280;5663;50.864;12.096;2023-04-21T08:24:42;99296.53;;;16.19;59.43
11212;BME280;5663;50.864;12.096;2023-04-21T08:27:10;99294.66;;;16.33;59.43
11212;BME280;5663;50.864;12.096;2023-04-21T08:29:38;99288.72;;;16.42;59.59
11212;BME280;5663;50.864;12.096;2023-04-21T08:32:05;99253.50;;;16.33;58.69
11212;BME280;5663;50.864;12.096;2023-04-21T08:34:35;99275.72;;;16.63;58.86
11212;BME280;5663;50.864;12.096;2023-04-21T08:37:02;99255.91;;;16.70;58.92
11212;BME280;5663;50.864;12.096;2023-04-21T08:39:31;99268.25;;;16.92;57.60
11212;BME280;5663;50.864;12.096;2023-04-21T08:41:59;99275.16;;;17.04;58.01
11212;BME280;5663;50.864;12.096;2023-04-21T08:44:29;99249.13;;;17.01;57.61
11212;BME280;5663;50.864;12.096;2023-04-21T08:46:57;99272.72;;;17.23;56.97
11212;BME280;5663;50.864;12.096;2023-04-21T08:49:28;99272.09;;;17.31;57.28
11212;BME280;5663;50.864;12.096;2023-04-21T08:51:59;99268.84;;;17.39;56.34
11212;BME280;5663;50.864;12.096;2023-04-21T08:54:26;99277.88;;;17.57;56.43
11212;BME280;5663;50.864;12.096;2023-04-21T08:56:54;99282.16;;;17.69;55.59
11212;BME280;5663;50.864;12.096;2023-04-21T08:59:22;99271.63;;;17.81;54.50
11212;BME280;5663;50.864;12.096;2023-04-21T09:02:09;99270.78;;;18.01;54.21
11212;BME280;5663;50.864;12.096;2023-04-21T09:04:38;99270.66;;;18.24;54.41
11212;BME280;5663;50.864;12.096;2023-04-21T09:07:07;99265.78;;;18.40;55.18
11212;BME280;5663;50.864;12.096;2023-04-21T09:09:51;99283.91;;;18.64;53.51
11212;BME280;5663;50.864;12.096;2023-04-21T09:12:19;99266.50;;;18.73;52.17
11212;BME280;5663;50.864;12.096;2023-04-21T09:14:47;99263.63;;;18.76;52.31
11212;BME280;5663;50.864;12.096;2023-04-21T09:17:16;99277.13;;;18.92;52.88
11212;BME280;5663;50.864;12.096;2023-04-21T09:19:45;99268.56;;;19.09;51.39
11212;BME280;5663;50.864;12.096;2023-04-21T09:22:16;99270.28;;;19.30;49.57
11212;BME280;5663;50.864;12.096;2023-04-21T09:24:45;99275.03;;;19.55;49.57
11212;BME280;5663;50.864;12.096;2023-04-21T09:27:14;99261.75;;;19.76;49.35
11212;BME280;5663;50.864;12.096;2023-04-21T09:29:46;99271.16;;;20.08;49.63
11212;BME280;5663;50.864;12.096;2023-04-21T09:32:19;99269.16;;;20.39;49.18
11212;BME280;5663;50.864;12.096;2023-04-21T09:34:48;99258.81;;;20.65;48.18
11212;BME280;5663;50.864;12.096;2023-04-21T09:37:19;99267.38;;;20.77;46.27
11212;BME280;5663;50.864;12.096;2023-04-21T09:39:51;99262.63;;;20.80;46.38
11212;BME280;5663;50.864;12.096;2023-04-21T09:42:27;99260.03;;;20.98;47.85
11212;BME280;5663;50.864;12.096;2023-04-21T09:45:00;99253.91;;;21.25;47.37
11212;BME280;5663;50.864;12.096;2023-04-21T09:47:36;99267.56;;;21.48;46.68
11212;BME280;5663;50.864;12.096;2023-04-21T09:50:09;99252.75;;;21.55;44.83
11212;BME280;5663;50.864;12.096;2023-04-21T09:52:41;99258.34;;;21.52;44.96
11212;BME280;5663;50.864;12.096;2023-04-21T09:55:11;99256.31;;;21.64;43.84
11212;BME280;5663;50.864;12.096;2023-04-21T09:57:41;99252.72;;;21.73;43.87
11212;BME280;5663;50.864;12.096;2023-04-21T10:00:13;99245.75;;;21.90;45.30
11212;BME280;5663;50.864;12.096;2023-04-21T10:02:44;99247.34;;;22.19;44.52
11212;BME280;5663;50.864;12.096;2023-04-21T10:05:14;99241.16;;;22.36;43.86
11212;BME280;5663;50.864;12.096;2023-04-21T10:07:45;99241.88;;;22.46;44.11
11212;BME280;5663;50.864;12.096;2023-04-21T10:10:19;99232.66;;;22.58;43.60
11212;BME280;5663;50.864;12.096;2023-04-21T10:12:49;99214.09;;;22.58;42.51
11212;BME280;5663;50.864;12.096;2023-04-21T10:15:29;99231.44;;;22.87;43.13
11212;BME280;5663;50.864;12.096;2023-04-21T10:18:15;99215.75;;;22.94;41.88
11212;BME280;5663;50.864;12.096;2023-04-21T10:20:53;99231.69;;;23.02;40.70
11212;BME280;5663;50.864;12.096;2023-04-21T10:23:32;99191.31;;;22.82;41.41
11212;BME280;5663;50.864;12.096;2023-04-21T10:26:08;99229.50;;;22.97;40.39
11212;BME280;5663;50.864;12.096;2023-04-21T10:28:47;99221.94;;;23.02;42.20
11212;BME280;5663;50.864;12.096;2023-04-21T10:31:20;99235.56;;;23.24;41.42
11212;BME280;5663;50.864;12.096;2023-04-21T10:34:17;99233.09;;;23.30;40.58
11212;BME280;5663;50.864;12.096;2023-04-21T10:39:35;99227.97;;;23.45;40.86
11212;BME280;5663;50.864;12.096;2023-04-21T10:42:33;99220.19;;;23.60;40.54
11212;BME280;5663;50.864;12.096;2023-04-21T10:45:09;99213.75;;;23.79;39.69
11212;BME280;5663;50.864;12.096;2023-04-21T10:47:44;99207.75;;;23.69;38.84
11212;BME280;5663;50.864;12.096;2023-04-21T10:50:16;99210.38;;;23.44;39.05
11212;BME280;5663;50.864;12.096;2023-04-21T10:52:48;99213.72;;;23.46;39.26
11212;BME280;5663;50.864;12.096;2023-04-21T10:55:19;99214.19;;;23.50;39.03
11212;BME280;5663;50.864;12.096;2023-04-21T10:57:47;99211.56;;;23.58;37.90
11212;BME280;5663;50.864;12.096;2023-04-21T11:00:17;99210.38;;;23.52;37.85
11212;BME280;5663;50.864;12.096;2023-04-21T11:02:56;99212.69;;;23.39;38.65
11212;BME280;5663;50.864;12.096;2023-04-21T11:05:32;99178.00;;;23.24;38.03
11212;BME280;5663;50.864;12.096;2023-04-21T11:08:09;99202.78;;;23.66;38.46
11212;BME280;5663;50.864;12.096;2023-04-21T11:10:46;99164.94;;;23.72;39.02
11212;BME280;5663;50.864;12.096;2023-04-21T11:13:15;99206.03;;;24.25;40.86
11212;BME280;5663;50.864;12.096;2023-04-21T11:15:55;99185.09;;;24.38;37.79
11212;BME280;5663;50.864;12.096;2023-04-21T11:18:40;99196.28;;;24.65;38.13
11212;BME280;5663;50.864;12.096;2023-04-21T11:21:11;99191.59;;;24.75;37.44
11212;BME280;5663;50.864;12.096;2023-04-21T11:23:47;99180.69;;;24.93;37.88
11212;BME280;5663;50.864;12.096;2023-04-21T11:26:17;99187.09;;;25.15;36.95
11212;BME280;5663;50.864;12.096;2023-04-21T11:28:49;99180.88;;;25.45;37.30
11212;BME280;5663;50.864;12.096;2023-04-21T11:31:17;99172.28;;;25.58;34.98
11212;BME280;5663;50.864;12.096;2023-04-21T11:33:45;99173.19;;;25.50;36.26
11212;BME280;5663;50.864;12.096;2023-04-21T11:36:13;99174.13;;;25.58;35.82
11212;BME280;5663;50.864;12.096;2023-04-21T11:38:41;99164.50;;;25.71;35.50
11212;BME280;5663;50.864;12.096;2023-04-21T11:41:09;99162.03;;;25.70;35.50
11212;BME280;5663;50.864;12.096;2023-04-21T11:43:39;99163.09;;;25.61;35.02
11212;BME280;5663;50.864;12.096;2023-04-21T11:46:16;99174.34;;;25.71;36.82
11212;BME280;5663;50.864;12.096;2023-04-21T11:48:46;99167.31;;;25.93;35.96
11212;BME280;5663;50.864;12.096;2023-04-21T11:51:26;99161.47;;;26.12;34.95
11212;BME280;5663;50.864;12.096;2023-04-21T11:53:59;99137.09;;;26.00;33.33
11212;BME280;5663;50.864;12.096;2023-04-21T11:56:27;99162.28;;;26.13;35.39
11212;BME280;5663;50.864;12.096;2023-04-21T11:58:56;99148.50;;;26.24;35.25
11212;BME280;5663;50.864;12.096;2023-04-21T12:01:25;99156.22;;;26.48;33.93
11212;BME280;5663;50.864;12.096;2023-04-21T12:03:55;99146.84;;;26.52;32.09
11212;BME280;5663;50.864;12.096;2023-04-21T12:06:26;99147.38;;;26.33;33.15
11212;BME280;5663;50.864;12.096;2023-04-21T12:08:55;99132.16;;;26.27;33.60
11212;BME280;5663;50.864;12.096;2023-04-21T12:11:24;99134.06;;;26.48;33.36
11212;BME280;5663;50.864;12.096;2023-04-21T12:13:58;99152.06;;;26.75;33.08
11212;BME280;5663;50.864;12.096;2023-04-21T12:16:27;99145.16;;;26.81;33.04
11212;BME280;5663;50.864;12.096;2023-04-21T12:18:55;99113.63;;;26.70;32.79
11212;BME280;5663;50.864;12.096;2023-04-21T12:21:27;99143.25;;;26.96;32.61
11212;BME280;5663;50.864;12.096;2023-04-21T12:23:56;99143.25;;;26.96;31.76
11212;BME280;5663;50.864;12.096;2023-04-21T12:26:24;99132.31;;;26.91;33.11
11212;BME280;5663;50.864;12.096;2023-04-21T12:28:53;99141.59;;;27.10;31.08
11212;BME280;5663;50.864;12.096;2023-04-21T12:31:22;99127.34;;;26.88;32.40
11212;BME280;5663;50.864;12.096;2023-04-21T12:33:50;99126.50;;;26.66;32.32
11212;BME280;5663;50.864;12.096;2023-04-21T12:36:18;99133.19;;;26.77;33.36
11212;BME280;5663;50.864;12.096;2023-04-21T12:38:45;99126.53;;;26.88;32.08
11212;BME280;5663;50.864;12.096;2023-04-21T12:41:14;99091.13;;;26.79;33.10
11212;BME280;5663;50.864;12.096;2023-04-21T12:43:42;99128.78;;;27.06;32.83
11212;BME280;5663;50.864;12.096;2023-04-21T12:46:10;99127.00;;;27.13;32.44
11212;BME280;5663;50.864;12.096;2023-04-21T12:48:39;99122.53;;;27.13;31.28
11212;BME280;5663;50.864;12.096;2023-04-21T12:51:07;99105.13;;;27.02;30.25
11212;BME280;5663;50.864;12.096;2023-04-21T12:53:34;99122.28;;;26.93;30.75
11212;BME280;5663;50.864;12.096;2023-04-21T12:56:04;99120.34;;;26.66;30.18
11212;BME280;5663;50.864;12.096;2023-04-21T12:58:32;99118.72;;;26.50;30.62
11212;BME280;5663;50.864;12.096;2023-04-21T13:00:59;99126.78;;;26.57;31.52
11212;BME280;5663;50.864;12.096;2023-04-21T13:03:28;99118.50;;;26.66;31.31
11212;BME280;5663;50.864;12.096;2023-04-21T13:05:57;99109.13;;;26.56;30.03
11212;BME280;5663;50.864;12.096;2023-04-21T13:08:25;99103.53;;;26.50;31.02
11212;BME280;5663;50.864;12.096;2023-04-21T13:10:53;99104.06;;;26.61;32.33
11212;BME280;5663;50.864;12.096;2023-04-21T13:13:21;99104.72;;;26.63;30.31
11212;BME280;5663;50.864;12.096;2023-04-21T13:15:48;99103.81;;;26.56;30.57
11212;BME280;5663;50.864;12.096;2023-04-21T13:18:16;99079.91;;;26.47;31.16
11212;BME280;5663;50.864;12.096;2023-04-21T13:20:44;99097.22;;;26.73;30.04
11212;BME280;5663;50.864;12.096;2023-04-21T13:23:13;99099.13;;;26.79;32.26